createdAt,value
2023-05-13T00:02:09.310Z,11.35
2023-05-13T00:04:36.378Z,11.93
2023-05-13T00:07:03.259Z,9.02
2023-05-13T00:09:37.429Z,9.98
2023-05-13T00:17:21.793Z,8.18
2023-05-13T00:19:50.580Z,8.13
2023-05-13T00:25:21.862Z,7.32
2023-05-13T00:27:48.909Z,8.15
2023-05-13T00:30:15.734Z,10.05
2023-05-13T00:38:06.987Z,7.65
2023-05-13T00:40:45.274Z,7.72
2023-05-13T00:43:21.928Z,10.18
2023-05-13T00:45:51.220Z,9.88
2023-05-13T00:48:17.879Z,8.82
2023-05-13T00:50:45.908Z,8.43
2023-05-13T00:53:15.312Z,7.30
2023-05-13T00:55:47.049Z,7.60
2023-05-13T00:58:16.211Z,7.90
2023-05-13T01:01:08.540Z,7.60
2023-05-13T01:04:32.394Z,7.65
2023-05-13T01:07:48.680Z,6.93
2023-05-13T01:14:14.798Z,7.43
2023-05-13T01:22:34.004Z,7.38
2023-05-13T01:27:52.273Z,7.50
2023-05-13T01:30:30.554Z,7.65
2023-05-13T01:33:13.304Z,8.60
2023-05-13T01:35:42.239Z,7.20
2023-05-13T01:38:14.123Z,7.10
2023-05-13T01:40:42.937Z,7.47
2023-05-13T01:45:47.373Z,8.10
2023-05-13T01:48:26.065Z,7.78
2023-05-13T01:50:53.645Z,7.55
2023-05-13T01:53:24.277Z,7.20
2023-05-13T01:56:05.872Z,7.85
2023-05-13T01:58:41.016Z,7.57
2023-05-13T02:01:14.697Z,7.75
2023-05-13T02:03:43.787Z,7.63
2023-05-13T02:06:14.116Z,9.25
2023-05-13T02:08:41.351Z,6.88
2023-05-13T02:11:13.997Z,7.15
2023-05-13T02:13:48.088Z,7.80
2023-05-13T02:16:16.937Z,8.15
2023-05-13T02:18:45.410Z,6.65
2023-05-13T02:21:13.943Z,6.97
2023-05-13T02:24:01.805Z,6.88
2023-05-13T02:26:33.443Z,7.43
2023-05-13T02:29:16.729Z,7.43
2023-05-13T02:31:44.035Z,6.90
2023-05-13T02:34:13.910Z,8.23
2023-05-13T02:36:41.584Z,7.63
2023-05-13T02:39:08.610Z,7.07
2023-05-13T02:41:38.592Z,6.65
2023-05-13T02:44:06.295Z,6.50
2023-05-13T02:46:34.547Z,6.32
2023-05-13T02:49:01.201Z,7.32
2023-05-13T02:51:28.319Z,7.97
2023-05-13T02:53:55.463Z,6.63
2023-05-13T02:56:33.625Z,6.30
2023-05-13T02:59:00.470Z,7.63
2023-05-13T03:01:30.982Z,5.78
2023-05-13T03:06:36.955Z,6.80
2023-05-13T03:09:27.694Z,6.32
2023-05-13T03:12:02.002Z,6.20
2023-05-13T03:17:13.837Z,7.57
2023-05-13T03:19:46.468Z,7.70
2023-05-13T03:22:14.089Z,10.88
2023-05-13T03:24:59.433Z,8.40
2023-05-13T03:27:40.028Z,7.75
2023-05-13T03:32:36.689Z,7.20
2023-05-13T03:35:04.016Z,7.47
2023-05-13T03:37:33.859Z,6.90
2023-05-13T03:40:00.795Z,7.20
2023-05-13T03:42:38.572Z,7.13
2023-05-13T03:45:10.092Z,7.47
2023-05-13T03:47:43.094Z,7.53
2023-05-13T03:50:14.701Z,7.78
2023-05-13T03:52:46.271Z,8.45
2023-05-13T03:55:16.320Z,9.52
2023-05-13T03:57:55.947Z,9.57
2023-05-13T04:00:29.628Z,16.73
2023-05-13T04:03:03.881Z,9.52
2023-05-13T04:05:35.789Z,8.48
2023-05-13T04:08:06.396Z,9.68
2023-05-13T04:10:39.281Z,11.32
2023-05-13T04:13:09.759Z,8.68
2023-05-13T04:15:37.476Z,9.70
2023-05-13T04:18:04.436Z,12.20
2023-05-13T04:20:33.581Z,9.73
2023-05-13T04:23:01.892Z,10.38
2023-05-13T04:25:31.747Z,10.65
2023-05-13T04:27:58.395Z,14.35
2023-05-13T04:30:29.974Z,9.75
2023-05-13T04:33:00.860Z,9.52
2023-05-13T04:35:30.215Z,9.73
2023-05-13T04:37:59.412Z,9.88
2023-05-13T04:40:28.733Z,11.98
2023-05-13T04:45:40.618Z,12.48
2023-05-13T04:48:12.739Z,10.13
2023-05-13T04:50:52.402Z,9.60
2023-05-13T04:53:26.764Z,10.05
2023-05-13T04:56:24.806Z,12.02
2023-05-13T04:59:02.169Z,9.10
2023-05-13T05:01:34.440Z,11.43
2023-05-13T05:14:22.717Z,8.82
2023-05-13T05:16:49.666Z,11.40
2023-05-13T05:22:05.346Z,8.27
2023-05-13T05:24:32.797Z,8.32
2023-05-13T05:27:05.176Z,9.73
2023-05-13T05:32:13.626Z,9.75
2023-05-13T05:34:49.630Z,8.13
2023-05-13T05:40:07.740Z,9.23
2023-05-13T05:45:55.639Z,8.68
2023-05-13T05:48:31.152Z,7.10
2023-05-13T05:51:11.377Z,7.40
2023-05-13T05:56:36.280Z,8.63
2023-05-13T06:01:49.753Z,6.10
2023-05-13T06:04:30.633Z,7.35
2023-05-13T06:20:09.907Z,5.90
2023-05-13T06:22:38.575Z,5.47
2023-05-13T06:25:16.405Z,5.03
2023-05-13T06:27:42.970Z,5.07
2023-05-13T06:36:09.940Z,6.07
2023-05-13T06:38:52.842Z,8.77
2023-05-13T06:41:27.174Z,4.97
2023-05-13T06:47:16.803Z,6.47
2023-05-13T06:55:51.564Z,4.20
2023-05-13T07:01:42.691Z,4.70
2023-05-13T07:13:20.959Z,5.32
2023-05-13T07:15:58.607Z,5.22
2023-05-13T07:18:26.294Z,5.60
2023-05-13T07:24:07.111Z,3.58
2023-05-13T07:29:33.555Z,3.95
2023-05-13T07:39:07.143Z,4.78
2023-05-13T08:04:33.312Z,5.35
2023-05-13T08:07:09.801Z,3.60
2023-05-13T08:27:40.682Z,4.07
2023-05-13T08:30:14.222Z,3.33
2023-05-13T08:35:59.860Z,3.90
2023-05-13T08:54:12.599Z,3.85
2023-05-13T09:31:04.131Z,4.38
2023-05-13T09:33:36.596Z,4.05
2023-05-13T09:41:39.369Z,3.33
2023-05-13T09:44:28.602Z,2.97
2023-05-13T09:52:37.578Z,5.45
2023-05-13T09:55:09.667Z,4.72
2023-05-13T09:57:40.735Z,3.10
2023-05-13T10:00:28.726Z,3.63
2023-05-13T10:02:58.538Z,4.53
2023-05-13T10:05:45.982Z,6.18
2023-05-13T10:08:14.692Z,3.75
2023-05-13T10:10:48.312Z,3.85
2023-05-13T10:13:19.238Z,5.20
2023-05-13T10:21:30.483Z,3.88
2023-05-13T10:24:07.007Z,4.80
2023-05-13T10:26:43.743Z,4.85
2023-05-13T10:32:06.543Z,3.95
2023-05-13T10:47:03.381Z,3.10
2023-05-13T10:52:50.796Z,5.00
2023-05-13T10:58:49.365Z,3.67
2023-05-13T11:14:48.157Z,3.53
2023-05-13T11:17:21.009Z,2.90
2023-05-13T11:22:35.840Z,5.22
2023-05-13T11:27:53.774Z,6.82
2023-05-13T11:31:11.222Z,5.18
2023-05-13T11:48:22.216Z,4.93
2023-05-13T11:56:17.804Z,6.43
2023-05-13T11:58:53.559Z,3.95
2023-05-13T12:01:30.475Z,3.28
2023-05-13T12:04:13.616Z,3.38
2023-05-13T12:15:02.209Z,4.55
2023-05-13T12:20:27.532Z,3.70
2023-05-13T12:28:35.412Z,3.20
2023-05-13T12:31:28.652Z,4.38
2023-05-13T12:33:55.572Z,4.57
2023-05-13T12:36:37.335Z,3.72
2023-05-13T12:44:38.520Z,3.55
2023-05-13T12:47:22.888Z,2.85
2023-05-13T13:03:31.030Z,3.25
2023-05-13T13:11:37.731Z,3.70
2023-05-13T13:14:16.032Z,3.50
2023-05-13T13:16:46.454Z,3.22
2023-05-13T13:41:29.441Z,2.15
2023-05-13T13:44:08.972Z,2.63
2023-05-13T13:57:55.470Z,3.65
2023-05-13T14:12:16.801Z,2.95
2023-05-13T14:19:56.632Z,6.68
2023-05-13T14:22:35.398Z,3.80
2023-05-13T14:25:13.898Z,2.60
2023-05-13T14:27:44.161Z,2.50
2023-05-13T14:30:17.394Z,2.42
2023-05-13T14:32:51.069Z,2.63
2023-05-13T14:35:20.929Z,2.58
2023-05-13T14:37:56.916Z,2.55
2023-05-13T14:43:07.232Z,3.05
2023-05-13T14:45:35.764Z,2.45
2023-05-13T14:48:02.485Z,5.20
2023-05-13T14:50:50.416Z,4.10
2023-05-13T14:53:41.386Z,3.58
2023-05-13T15:02:01.861Z,3.38
2023-05-13T15:07:18.409Z,3.10
2023-05-13T15:09:47.535Z,5.30
2023-05-13T15:12:16.189Z,3.58
2023-05-13T15:14:43.439Z,5.30
2023-05-13T15:17:21.379Z,3.45
2023-05-13T15:19:54.792Z,4.18
2023-05-13T15:22:28.393Z,4.07
2023-05-13T15:24:58.582Z,3.25
2023-05-13T15:33:02.135Z,3.60
2023-05-13T15:35:32.725Z,4.00
2023-05-13T15:46:42.933Z,3.17
2023-05-13T15:54:45.564Z,3.33
2023-05-13T15:57:13.386Z,4.55
2023-05-13T15:59:49.262Z,3.47
2023-05-13T16:05:37.220Z,3.45
2023-05-13T16:08:03.840Z,5.55
2023-05-13T16:13:26.738Z,3.75
2023-05-13T16:16:07.501Z,4.82
2023-05-13T16:21:23.289Z,5.88
2023-05-13T16:26:32.802Z,3.78
2023-05-13T16:31:43.375Z,3.90
2023-05-13T16:34:11.064Z,4.95
2023-05-13T16:36:38.634Z,3.67
2023-05-13T16:39:12.497Z,3.88
2023-05-13T16:41:51.788Z,4.45
2023-05-13T16:52:34.504Z,4.25
2023-05-13T17:00:23.708Z,3.70
2023-05-13T17:02:51.034Z,4.53
2023-05-13T17:05:20.465Z,3.88
2023-05-13T17:07:49.901Z,4.85
2023-05-13T17:10:19.057Z,5.03
2023-05-13T17:18:16.969Z,4.22
2023-05-13T17:23:44.154Z,4.55
2023-05-13T17:26:15.476Z,4.75
2023-05-13T17:48:39.294Z,4.97
2023-05-13T18:14:21.663Z,5.82
2023-05-13T18:16:49.037Z,3.30
2023-05-13T18:19:17.459Z,2.92
2023-05-13T18:21:46.506Z,5.28
2023-05-13T18:24:16.860Z,3.05
2023-05-13T18:26:47.793Z,3.58
2023-05-13T18:34:36.992Z,4.13
2023-05-13T18:37:10.274Z,4.53
2023-05-13T18:39:47.011Z,3.67
2023-05-13T18:50:27.435Z,6.13
2023-05-13T18:52:57.171Z,5.07
2023-05-13T18:55:39.103Z,3.97
2023-05-13T19:01:05.218Z,5.15
2023-05-13T19:06:43.784Z,4.85
2023-05-13T19:14:42.323Z,6.57
2023-05-13T19:19:51.268Z,4.53
2023-05-13T19:25:12.775Z,5.60
2023-05-13T19:27:41.193Z,5.90
2023-05-13T19:32:53.614Z,7.57
2023-05-13T19:37:47.906Z,5.60
2023-05-13T19:40:14.974Z,5.28
2023-05-13T19:45:36.971Z,6.55
2023-05-13T19:48:38.141Z,4.85
2023-05-13T19:51:06.496Z,7.80
2023-05-13T19:54:00.412Z,5.55
2023-05-13T19:59:14.522Z,4.72
2023-05-13T20:09:47.798Z,4.90
2023-05-13T20:12:14.631Z,4.97
2023-05-13T20:14:58.895Z,6.65
2023-05-13T20:17:25.914Z,5.63
2023-05-13T20:19:59.952Z,5.22
2023-05-13T20:22:30.238Z,8.13
2023-05-13T20:24:57.421Z,6.53
2023-05-13T20:27:27.023Z,9.18
2023-05-13T20:29:55.943Z,5.88
2023-05-13T20:32:25.432Z,7.88
2023-05-13T20:35:13.190Z,5.80
2023-05-13T20:37:45.319Z,8.48
2023-05-13T20:40:22.084Z,7.72
2023-05-13T20:42:57.456Z,5.57
2023-05-13T20:45:25.230Z,10.98
2023-05-13T20:47:54.908Z,6.82
2023-05-13T20:50:29.235Z,11.35
2023-05-13T20:53:00.702Z,6.43
2023-05-13T20:55:34.050Z,6.35
2023-05-13T20:58:03.371Z,8.02
2023-05-13T21:00:31.601Z,7.03
2023-05-13T21:03:03.551Z,6.47
2023-05-13T21:05:38.734Z,7.32
2023-05-13T21:14:08.934Z,7.00
2023-05-13T21:16:36.408Z,7.88
2023-05-13T21:19:07.924Z,8.27
2023-05-13T21:21:36.079Z,9.70
2023-05-13T21:24:03.125Z,10.75
2023-05-13T21:26:31.186Z,9.02
2023-05-13T21:29:00.218Z,9.85
2023-05-13T21:31:29.093Z,10.18
2023-05-13T21:33:58.646Z,9.88
2023-05-13T21:36:32.952Z,10.05
2023-05-13T21:39:02.429Z,9.23
2023-05-13T21:41:30.704Z,8.65
2023-05-13T21:43:58.019Z,10.13
2023-05-13T21:46:27.385Z,10.48
2023-05-13T21:48:54.139Z,9.75
2023-05-13T21:51:21.088Z,12.38
2023-05-13T21:53:49.167Z,15.32
2023-05-13T22:01:26.727Z,13.57
2023-05-13T22:03:57.725Z,11.95
2023-05-13T22:09:05.545Z,12.32
2023-05-13T22:11:33.789Z,12.75
2023-05-13T22:14:01.144Z,16.50
2023-05-13T22:16:28.241Z,14.68
2023-05-13T22:18:58.854Z,11.15
2023-05-13T22:21:31.296Z,11.07
2023-05-13T22:23:59.942Z,11.30
2023-05-13T22:26:47.771Z,9.77
2023-05-13T22:29:15.113Z,10.52
2023-05-13T22:31:44.391Z,9.82
2023-05-13T22:34:19.847Z,9.95
2023-05-13T22:36:46.897Z,8.68
2023-05-13T22:39:18.880Z,7.93
2023-05-13T22:41:45.453Z,8.07
2023-05-13T22:44:21.940Z,8.98
2023-05-13T22:46:49.790Z,10.30
2023-05-13T22:49:25.498Z,7.85
2023-05-13T22:51:52.832Z,7.88
2023-05-13T22:56:49.906Z,6.78
2023-05-13T22:59:17.495Z,9.13
2023-05-13T23:01:48.184Z,7.55
2023-05-13T23:04:14.873Z,7.85
2023-05-13T23:06:41.547Z,8.35
2023-05-13T23:09:09.806Z,7.57
2023-05-13T23:11:37.372Z,8.77
2023-05-13T23:14:06.327Z,8.63
2023-05-13T23:16:34.925Z,7.80
2023-05-13T23:19:04.631Z,9.02
2023-05-13T23:21:37.485Z,8.57
2023-05-13T23:24:05.134Z,7.15
2023-05-13T23:26:33.226Z,7.50
2023-05-13T23:29:00.016Z,8.40
2023-05-13T23:31:28.553Z,8.75
2023-05-13T23:33:55.394Z,9.13
2023-05-13T23:36:22.402Z,8.70
2023-05-13T23:39:03.880Z,6.95
2023-05-13T23:41:38.922Z,10.38
2023-05-13T23:44:13.971Z,9.68
2023-05-13T23:46:41.229Z,8.98
2023-05-13T23:49:07.983Z,7.40
2023-05-13T23:51:35.581Z,7.90
2023-05-13T23:54:03.920Z,8.13
2023-05-13T23:56:31.169Z,7.68
2023-05-13T23:59:09.203Z,10.10
